F/V Cote D'ambre — FPEY — position and weather

sailwx.info

Track history (hours):
 
Tides and Currents Weather Stations Pressure Air Temp Water Temp Dewpoint Dewpoint Depression Visibility Wind Speed Wind Dir Waves Ship Positions

F/V Cote D'ambre

Last reported at 2016-Aug-26 08:33 UTC. Time now 2016-Aug-28 00:32 UTC.
Position N 47°44' W 003°22'.

Length 16 m; draft 4 m.

Type: Fishing. MMSI: 227128800.

Date/timePositionNaut miles runAvg speedWind from/ knotsBaromVisibWave heightAir tempDewpointWater temp
2016-Aug-26 08:33N 47°44' W 003°22'0 0.0
2016-Aug-26 07:33N 47°44' W 003°22'0 0.0
2016-Aug-26 06:33N 47°44' W 003°22'0 0.0
2016-Aug-26 04:34N 47°44' W 003°22'0 0.1
2016-Aug-26 03:33N 47°44' W 003°22'8 7.9
2016-Aug-26 02:33N 47°36' W 003°22'8 8.0
2016-Aug-26 01:33N 47°28' W 003°22'8 7.8
2016-Aug-26 00:33N 47°20' W 003°22'3 2.6
2016-Aug-25 23:32N 47°17' W 003°21'0 0.3
2016-Aug-25 22:32N 47°18' W 003°21'1 0.7
2016-Aug-25 21:33N 47°18' W 003°22'5 5.5
2016-Aug-25 20:33N 47°23' W 003°22'9 9.1
2016-Aug-25 19:33N 47°33' W 003°22'9 8.9
2016-Aug-25 18:33N 47°41' W 003°22'2 2.3
2016-Aug-25 17:33N 47°44' W 003°22'8 8.5
2016-Aug-25 16:33N 47°35' W 003°22'9 9.1
2016-Aug-25 15:34N 47°26' W 003°22'8 8.2
2016-Aug-25 14:33N 47°18' W 003°22'2 2.3
2016-Aug-25 13:33N 47°19' W 003°25'2 2.2
2016-Aug-25 12:33N 47°20' W 003°28'1 1.4
2016-Aug-25 11:33N 47°21' W 003°29'2 1.6
2016-Aug-25 10:33N 47°20' W 003°27'2 2.4
2016-Aug-25 09:33N 47°21' W 003°30'2 1.8
2016-Aug-25 08:33N 47°23' W 003°28'2 1.8
2016-Aug-25 07:33N 47°22' W 003°30'1 0.9
2016-Aug-25 06:33N 47°22' W 003°31'3 1.6
2016-Aug-25 04:33N 47°26' W 003°30'7 7.1
2016-Aug-25 03:33N 47°32' W 003°26'7 7.3
2016-Aug-25 02:33N 47°39' W 003°23'5 4.6
2016-Aug-25 01:31N 47°44' W 003°22'2 2.1
2016-Aug-25 00:33N 47°42' W 003°22'7 7.1
2016-Aug-24 23:34N 47°35' W 003°26'3 2.6
2016-Aug-24 22:33N 47°33' W 003°26'3 3.3
2016-Aug-24 21:33N 47°30' W 003°22'2 2.3
2016-Aug-24 20:33N 47°29' W 003°25'4 3.7
2016-Aug-24 19:34N 47°29' W 003°31'6 0.5
2016-Aug-24 07:04N 47°23' W 003°31'1 2.3
2016-Aug-24 06:33N 47°22' W 003°30'3 1.6
2016-Aug-24 04:33N 47°25' W 003°30'7 6.7
2016-Aug-24 03:33N 47°31' W 003°26'7 6.7
2016-Aug-24 02:33N 47°37' W 003°23'6 6.4
2016-Aug-24 01:33N 47°44' W 003°22'0 0.1
2016-Aug-24 00:33N 47°44' W 003°22'0 0.0
2016-Aug-23 23:33N 47°44' W 003°22'6 6.1
2016-Aug-23 22:33N 47°38' W 003°22'5 5.2
2016-Aug-23 21:32N 47°32' W 003°23'7 6.8
2016-Aug-23 20:33N 47°26' W 003°26'3 0.4
2016-Aug-23 11:22N 47°23' W 003°28'2 2.7
2016-Aug-23 10:33N 47°21' W 003°27'0 0.1
2016-Aug-23 09:34N 47°21' W 003°27'2 2.3
2016-Aug-23 08:34N 47°23' W 003°28'3 3.1
2016-Aug-23 07:33N 47°20' W 003°25'2 1.9
2016-Aug-23 06:33N 47°22' W 003°27'3 3.4
2016-Aug-23 05:33N 47°25' W 003°29'5 4.5
2016-Aug-23 04:33N 47°30' W 003°29'7 7.0
2016-Aug-23 03:33N 47°36' W 003°24'8 7.7
2016-Aug-23 02:33N 47°44' W 003°22'0 0.0
2016-Aug-23 01:33N 47°44' W 003°22'8 7.5
2016-Aug-23 00:33N 47°36' W 003°24'7 6.7
2016-Aug-22 23:33N 47°31' W 003°29'3 3.3
2016-Aug-22 22:33N 47°27' W 003°30'7 1.2
2016-Aug-22 16:26N 47°21' W 003°25'1 1.5
2016-Aug-22 15:33N 47°19' W 003°25'2 1.6
2016-Aug-22 14:33N 47°20' W 003°27'3 3.2
2016-Aug-22 13:29N 47°24' W 003°28'1 0.9
2016-Aug-22 12:28N 47°23' W 003°28'3 2.8
2016-Aug-22 11:33N 47°25' W 003°28'3 2.7
2016-Aug-22 10:33N 47°28' W 003°30'3 3.0
2016-Aug-22 09:33N 47°25' W 003°29'3 3.4
2016-Aug-22 08:33N 47°22' W 003°28'3 2.5
2016-Aug-22 07:33N 47°20' W 003°25'3 2.7
2016-Aug-22 06:33N 47°22' W 003°28'4 3.6
2016-Aug-22 05:33N 47°26' W 003°30'4 3.5
2016-Aug-22 04:33N 47°29' W 003°29'8 7.7
2016-Aug-22 03:33N 47°35' W 003°23'8 7.7
2016-Aug-22 02:33N 47°43' W 003°22'  
2016-Aug-19 13:31N 47°44' W 003°22'0 0.0
2016-Aug-19 12:31N 47°44' W 003°22'0 0.1
2016-Aug-19 11:33N 47°44' W 003°22'0 0.0
2016-Aug-19 10:33N 47°44' W 003°22'0 0.0
2016-Aug-19 09:33N 47°44' W 003°22'0 0.0
2016-Aug-19 08:33N 47°44' W 003°22'0 0.0
2016-Aug-19 07:33N 47°44' W 003°22'0 0.0
2016-Aug-18 03:18N 47°44' W 003°22'0 0.1
2016-Aug-18 02:33N 47°44' W 003°22'3 2.6
2016-Aug-18 01:33N 47°41' W 003°22'8 8.4
2016-Aug-18 00:33N 47°33' W 003°21'8 8.2
2016-Aug-17 23:33N 47°25' W 003°19'8 8.1
2016-Aug-17 22:33N 47°17' W 003°18'1 0.5
2016-Aug-17 21:31N 47°16' W 003°18'0 0.0
2016-Aug-17 20:31N 47°16' W 003°18'0 0.0
2016-Aug-17 19:31N 47°16' W 003°18'0 0.1
2016-Aug-17 18:33N 47°16' W 003°18'3 3.4
2016-Aug-17 17:33N 47°18' W 003°22'4 3.9
2016-Aug-17 16:33N 47°20' W 003°28'2 1.8
2016-Aug-17 15:34N 47°21' W 003°29'4 3.6
2016-Aug-17 14:33N 47°25' W 003°28'4 3.7
2016-Aug-17 13:34N 47°27' W 003°33'2 2.0
2016-Aug-17 12:33N 47°25' W 003°33'2 1.9
2016-Aug-17 11:33N 47°26' W 003°31'1 1.3
2016-Aug-17 10:33N 47°26' W 003°29'2 2.0
2016-Aug-17 09:33N 47°24' W 003°30'3 2.6
2016-Aug-17 08:33N 47°26' W 003°33'3 2.7
2016-Aug-17 07:33N 47°25' W 003°30'2 2.1
2016-Aug-17 06:33N 47°24' W 003°33'2 2.0
2016-Aug-17 05:34N 47°25' W 003°30'3 2.9
2016-Aug-17 04:33N 47°22' W 003°28'2 2.5
2016-Aug-17 03:33N 47°20' W 003°26'4 3.5
2016-Aug-17 02:33N 47°23' W 003°28'4 3.7
2016-Aug-17 01:33N 47°27' W 003°30'4 3.5
2016-Aug-17 00:33N 47°30' W 003°28'4 4.0
2016-Aug-16 23:33N 47°31' W 003°23'2 1.7
2016-Aug-16 22:33N 47°31' W 003°25'2 2.3
2016-Aug-16 21:33N 47°30' W 003°22'4 3.5
2016-Aug-16 20:33N 47°27' W 003°26'2 2.3
2016-Aug-16 19:34N 47°25' W 003°26'2 2.0
2016-Aug-16 18:33N 47°25' W 003°29'2 1.9
2016-Aug-16 17:33N 47°25' W 003°32'2 2.5
2016-Aug-16 16:33N 47°23' W 003°31'3 2.7
2016-Aug-16 15:34N 47°26' W 003°32'4 4.3
2016-Aug-16 14:33N 47°30' W 003°30'9 8.5
2016-Aug-16 13:33N 47°37' W 003°22'7 3.6
2016-Aug-16 11:32N 47°44' W 003°22'0 0.1
2016-Aug-16 10:33N 47°44' W 003°22'9 8.9
2016-Aug-16 09:34N 47°35' W 003°23'9 8.6
2016-Aug-16 08:34N 47°28' W 003°30'  
Track history (hours):
 
Tides and Currents Weather Stations Pressure Air Temp Water Temp Dewpoint Dewpoint Depression Visibility Wind Speed Wind Dir Waves Ship Positions

F/V Cote D'ambre

Last reported at 2016-Aug-26 08:33 UTC. Time now 2016-Aug-28 00:32 UTC.
Position N 47°44' W 003°22'.

Length 16 m; draft 4 m.

Type: Fishing. MMSI: 227128800.

Date/timePositionNaut miles runAvg speedWind from/ knotsBaromVisibWave heightAir tempDewpointWater temp
2016-Aug-26 08:33N 47°44' W 003°22'0 0.0
2016-Aug-26 07:33N 47°44' W 003°22'0 0.0
2016-Aug-26 06:33N 47°44' W 003°22'0 0.0
2016-Aug-26 04:34N 47°44' W 003°22'0 0.1
2016-Aug-26 03:33N 47°44' W 003°22'8 7.9
2016-Aug-26 02:33N 47°36' W 003°22'8 8.0
2016-Aug-26 01:33N 47°28' W 003°22'8 7.8
2016-Aug-26 00:33N 47°20' W 003°22'3 2.6
2016-Aug-25 23:32N 47°17' W 003°21'0 0.3
2016-Aug-25 22:32N 47°18' W 003°21'1 0.7
2016-Aug-25 21:33N 47°18' W 003°22'5 5.5
2016-Aug-25 20:33N 47°23' W 003°22'9 9.1
2016-Aug-25 19:33N 47°33' W 003°22'9 8.9
2016-Aug-25 18:33N 47°41' W 003°22'2 2.3
2016-Aug-25 17:33N 47°44' W 003°22'8 8.5
2016-Aug-25 16:33N 47°35' W 003°22'9 9.1
2016-Aug-25 15:34N 47°26' W 003°22'8 8.2
2016-Aug-25 14:33N 47°18' W 003°22'2 2.3
2016-Aug-25 13:33N 47°19' W 003°25'2 2.2
2016-Aug-25 12:33N 47°20' W 003°28'1 1.4
2016-Aug-25 11:33N 47°21' W 003°29'2 1.6
2016-Aug-25 10:33N 47°20' W 003°27'2 2.4
2016-Aug-25 09:33N 47°21' W 003°30'2 1.8
2016-Aug-25 08:33N 47°23' W 003°28'2 1.8
2016-Aug-25 07:33N 47°22' W 003°30'1 0.9
2016-Aug-25 06:33N 47°22' W 003°31'3 1.6
2016-Aug-25 04:33N 47°26' W 003°30'7 7.1
2016-Aug-25 03:33N 47°32' W 003°26'7 7.3
2016-Aug-25 02:33N 47°39' W 003°23'5 4.6
2016-Aug-25 01:31N 47°44' W 003°22'2 2.1
2016-Aug-25 00:33N 47°42' W 003°22'7 7.1
2016-Aug-24 23:34N 47°35' W 003°26'3 2.6
2016-Aug-24 22:33N 47°33' W 003°26'3 3.3
2016-Aug-24 21:33N 47°30' W 003°22'2 2.3
2016-Aug-24 20:33N 47°29' W 003°25'4 3.7
2016-Aug-24 19:34N 47°29' W 003°31'6 0.5
2016-Aug-24 07:04N 47°23' W 003°31'1 2.3
2016-Aug-24 06:33N 47°22' W 003°30'3 1.6
2016-Aug-24 04:33N 47°25' W 003°30'7 6.7
2016-Aug-24 03:33N 47°31' W 003°26'7 6.7
2016-Aug-24 02:33N 47°37' W 003°23'6 6.4
2016-Aug-24 01:33N 47°44' W 003°22'0 0.1
2016-Aug-24 00:33N 47°44' W 003°22'0 0.0
2016-Aug-23 23:33N 47°44' W 003°22'6 6.1
2016-Aug-23 22:33N 47°38' W 003°22'5 5.2
2016-Aug-23 21:32N 47°32' W 003°23'7 6.8
2016-Aug-23 20:33N 47°26' W 003°26'3 0.4
2016-Aug-23 11:22N 47°23' W 003°28'2 2.7
2016-Aug-23 10:33N 47°21' W 003°27'0 0.1
2016-Aug-23 09:34N 47°21' W 003°27'2 2.3
2016-Aug-23 08:34N 47°23' W 003°28'3 3.1
2016-Aug-23 07:33N 47°20' W 003°25'2 1.9
2016-Aug-23 06:33N 47°22' W 003°27'3 3.4
2016-Aug-23 05:33N 47°25' W 003°29'5 4.5
2016-Aug-23 04:33N 47°30' W 003°29'7 7.0
2016-Aug-23 03:33N 47°36' W 003°24'8 7.7
2016-Aug-23 02:33N 47°44' W 003°22'0 0.0
2016-Aug-23 01:33N 47°44' W 003°22'8 7.5
2016-Aug-23 00:33N 47°36' W 003°24'7 6.7
2016-Aug-22 23:33N 47°31' W 003°29'3 3.3
2016-Aug-22 22:33N 47°27' W 003°30'7 1.2
2016-Aug-22 16:26N 47°21' W 003°25'1 1.5
2016-Aug-22 15:33N 47°19' W 003°25'2 1.6
2016-Aug-22 14:33N 47°20' W 003°27'3 3.2
2016-Aug-22 13:29N 47°24' W 003°28'1 0.9
2016-Aug-22 12:28N 47°23' W 003°28'3 2.8
2016-Aug-22 11:33N 47°25' W 003°28'3 2.7
2016-Aug-22 10:33N 47°28' W 003°30'3 3.0
2016-Aug-22 09:33N 47°25' W 003°29'3 3.4
2016-Aug-22 08:33N 47°22' W 003°28'3 2.5
2016-Aug-22 07:33N 47°20' W 003°25'3 2.7
2016-Aug-22 06:33N 47°22' W 003°28'4 3.6
2016-Aug-22 05:33N 47°26' W 003°30'4 3.5
2016-Aug-22 04:33N 47°29' W 003°29'8 7.7
2016-Aug-22 03:33N 47°35' W 003°23'8 7.7
2016-Aug-22 02:33N 47°43' W 003°22'  
2016-Aug-19 13:31N 47°44' W 003°22'0 0.0
2016-Aug-19 12:31N 47°44' W 003°22'0 0.1
2016-Aug-19 11:33N 47°44' W 003°22'0 0.0
2016-Aug-19 10:33N 47°44' W 003°22'0 0.0
2016-Aug-19 09:33N 47°44' W 003°22'0 0.0
2016-Aug-19 08:33N 47°44' W 003°22'0 0.0
2016-Aug-19 07:33N 47°44' W 003°22'0 0.0
2016-Aug-18 03:18N 47°44' W 003°22'0 0.1
2016-Aug-18 02:33N 47°44' W 003°22'3 2.6
2016-Aug-18 01:33N 47°41' W 003°22'8 8.4
2016-Aug-18 00:33N 47°33' W 003°21'8 8.2
2016-Aug-17 23:33N 47°25' W 003°19'8 8.1
2016-Aug-17 22:33N 47°17' W 003°18'1 0.5
2016-Aug-17 21:31N 47°16' W 003°18'0 0.0
2016-Aug-17 20:31N 47°16' W 003°18'0 0.0
2016-Aug-17 19:31N 47°16' W 003°18'0 0.1
2016-Aug-17 18:33N 47°16' W 003°18'3 3.4
2016-Aug-17 17:33N 47°18' W 003°22'4 3.9
2016-Aug-17 16:33N 47°20' W 003°28'2 1.8
2016-Aug-17 15:34N 47°21' W 003°29'4 3.6
2016-Aug-17 14:33N 47°25' W 003°28'4 3.7
2016-Aug-17 13:34N 47°27' W 003°33'2 2.0
2016-Aug-17 12:33N 47°25' W 003°33'2 1.9
2016-Aug-17 11:33N 47°26' W 003°31'1 1.3
2016-Aug-17 10:33N 47°26' W 003°29'2 2.0
2016-Aug-17 09:33N 47°24' W 003°30'3 2.6
2016-Aug-17 08:33N 47°26' W 003°33'3 2.7
2016-Aug-17 07:33N 47°25' W 003°30'2 2.1
2016-Aug-17 06:33N 47°24' W 003°33'2 2.0
2016-Aug-17 05:34N 47°25' W 003°30'3 2.9
2016-Aug-17 04:33N 47°22' W 003°28'2 2.5
2016-Aug-17 03:33N 47°20' W 003°26'4 3.5
2016-Aug-17 02:33N 47°23' W 003°28'4 3.7
2016-Aug-17 01:33N 47°27' W 003°30'4 3.5
2016-Aug-17 00:33N 47°30' W 003°28'4 4.0
2016-Aug-16 23:33N 47°31' W 003°23'2 1.7
2016-Aug-16 22:33N 47°31' W 003°25'2 2.3
2016-Aug-16 21:33N 47°30' W 003°22'4 3.5
2016-Aug-16 20:33N 47°27' W 003°26'2 2.3
2016-Aug-16 19:34N 47°25' W 003°26'2 2.0
2016-Aug-16 18:33N 47°25' W 003°29'2 1.9
2016-Aug-16 17:33N 47°25' W 003°32'2 2.5
2016-Aug-16 16:33N 47°23' W 003°31'3 2.7
2016-Aug-16 15:34N 47°26' W 003°32'4 4.3
2016-Aug-16 14:33N 47°30' W 003°30'9 8.5
2016-Aug-16 13:33N 47°37' W 003°22'7 3.6
2016-Aug-16 11:32N 47°44' W 003°22'0 0.1
2016-Aug-16 10:33N 47°44' W 003°22'9 8.9
2016-Aug-16 09:34N 47°35' W 003°23'9 8.6
2016-Aug-16 08:34N 47°28' W 003°30'  

Dump ship's entire track history